sensor_id;sensor_type;location;lat;lon;timestamp;P1;durP1;ratioP1;P2;durP2;ratioP2
6564;SDS011;3316;44.118;27.258;2023-03-23T00:00:52;50.47;;;26.80;;
6564;SDS011;3316;44.118;27.258;2023-03-23T00:03:19;48.50;;;26.83;;
6564;SDS011;3316;44.118;27.258;2023-03-23T00:05:46;52.50;;;29.17;;
6564;SDS011;3316;44.118;27.258;2023-03-23T00:08:19;52.43;;;27.33;;
6564;SDS011;3316;44.118;27.258;2023-03-23T00:10:48;51.77;;;27.67;;
6564;SDS011;3316;44.118;27.258;2023-03-23T00:13:23;52.10;;;28.57;;
6564;SDS011;3316;44.118;27.258;2023-03-23T00:15:49;49.97;;;27.63;;
6564;SDS011;3316;44.118;27.258;2023-03-23T00:18:20;53.47;;;28.07;;
6564;SDS011;3316;44.118;27.258;2023-03-23T00:20:47;52.77;;;28.70;;
6564;SDS011;3316;44.118;27.258;2023-03-23T00:23:17;53.10;;;28.07;;
6564;SDS011;3316;44.118;27.258;2023-03-23T00:25:50;50.43;;;27.40;;
6564;SDS011;3316;44.118;27.258;2023-03-23T00:28:18;52.20;;;29.30;;
6564;SDS011;3316;44.118;27.258;2023-03-23T00:30:53;49.10;;;29.23;;
6564;SDS011;3316;44.118;27.258;2023-03-23T00:33:31;48.50;;;26.53;;
6564;SDS011;3316;44.118;27.258;2023-03-23T00:36:05;51.03;;;28.60;;
6564;SDS011;3316;44.118;27.258;2023-03-23T00:38:35;52.17;;;27.93;;
6564;SDS011;3316;44.118;27.258;2023-03-23T00:41:01;51.63;;;29.00;;
6564;SDS011;3316;44.118;27.258;2023-03-23T00:43:28;51.50;;;29.90;;
6564;SDS011;3316;44.118;27.258;2023-03-23T00:45:56;54.80;;;29.83;;
6564;SDS011;3316;44.118;27.258;2023-03-23T00:48:26;54.17;;;29.60;;
6564;SDS011;3316;44.118;27.258;2023-03-23T00:50:52;59.53;;;31.43;;
6564;SDS011;3316;44.118;27.258;2023-03-23T00:53:18;55.47;;;30.20;;
6564;SDS011;3316;44.118;27.258;2023-03-23T00:55:44;55.17;;;29.30;;
6564;SDS011;3316;44.118;27.258;2023-03-23T00:58:12;58.87;;;31.50;;
6564;SDS011;3316;44.118;27.258;2023-03-23T01:00:38;51.43;;;29.10;;
6564;SDS011;3316;44.118;27.258;2023-03-23T01:03:04;56.40;;;30.27;;
6564;SDS011;3316;44.118;27.258;2023-03-23T01:05:37;56.50;;;31.33;;
6564;SDS011;3316;44.118;27.258;2023-03-23T01:08:04;58.33;;;31.37;;
6564;SDS011;3316;44.118;27.258;2023-03-23T01:10:31;61.17;;;32.93;;
6564;SDS011;3316;44.118;27.258;2023-03-23T01:12:58;56.50;;;31.00;;
6564;SDS011;3316;44.118;27.258;2023-03-23T01:15:28;60.53;;;32.77;;
6564;SDS011;3316;44.118;27.258;2023-03-23T01:17:54;57.47;;;30.20;;
6564;SDS011;3316;44.118;27.258;2023-03-23T01:20:20;60.80;;;30.10;;
6564;SDS011;3316;44.118;27.258;2023-03-23T01:22:45;60.37;;;30.00;;
6564;SDS011;3316;44.118;27.258;2023-03-23T01:25:11;61.47;;;31.30;;
6564;SDS011;3316;44.118;27.258;2023-03-23T01:27:38;62.70;;;30.93;;
6564;SDS011;3316;44.118;27.258;2023-03-23T01:30:04;60.23;;;32.40;;
6564;SDS011;3316;44.118;27.258;2023-03-23T01:32:30;57.37;;;31.70;;
6564;SDS011;3316;44.118;27.258;2023-03-23T01:34:56;62.37;;;35.47;;
6564;SDS011;3316;44.118;27.258;2023-03-23T01:37:22;61.73;;;35.10;;
6564;SDS011;3316;44.118;27.258;2023-03-23T01:39:55;60.47;;;32.37;;
6564;SDS011;3316;44.118;27.258;2023-03-23T01:42:24;58.90;;;30.80;;
6564;SDS011;3316;44.118;27.258;2023-03-23T01:47:20;65.37;;;33.60;;
6564;SDS011;3316;44.118;27.258;2023-03-23T01:49:49;59.70;;;32.63;;
6564;SDS011;3316;44.118;27.258;2023-03-23T01:52:16;60.90;;;31.73;;
6564;SDS011;3316;44.118;27.258;2023-03-23T01:54:52;66.17;;;33.63;;
6564;SDS011;3316;44.118;27.258;2023-03-23T01:57:21;59.33;;;30.77;;
6564;SDS011;3316;44.118;27.258;2023-03-23T01:59:52;57.40;;;31.17;;
6564;SDS011;3316;44.118;27.258;2023-03-23T02:02:21;59.73;;;31.87;;
6564;SDS011;3316;44.118;27.258;2023-03-23T02:04:48;65.60;;;32.30;;
6564;SDS011;3316;44.118;27.258;2023-03-23T02:07:15;61.27;;;32.80;;
6564;SDS011;3316;44.118;27.258;2023-03-23T02:09:43;63.83;;;32.60;;
6564;SDS011;3316;44.118;27.258;2023-03-23T02:12:08;64.47;;;32.53;;
6564;SDS011;3316;44.118;27.258;2023-03-23T02:14:34;64.83;;;33.73;;
6564;SDS011;3316;44.118;27.258;2023-03-23T02:17:10;62.57;;;32.47;;
6564;SDS011;3316;44.118;27.258;2023-03-23T02:35:35;114.03;;;60.83;;
6564;SDS011;3316;44.118;27.258;2023-03-23T02:38:06;101.50;;;54.10;;
6564;SDS011;3316;44.118;27.258;2023-03-23T02:40:40;110.30;;;57.37;;
6564;SDS011;3316;44.118;27.258;2023-03-23T02:43:20;100.90;;;52.17;;
6564;SDS011;3316;44.118;27.258;2023-03-23T02:45:50;90.03;;;46.20;;
6564;SDS011;3316;44.118;27.258;2023-03-23T02:48:18;102.87;;;51.43;;
6564;SDS011;3316;44.118;27.258;2023-03-23T02:50:47;89.23;;;46.73;;
6564;SDS011;3316;44.118;27.258;2023-03-23T02:53:18;87.30;;;46.03;;
6564;SDS011;3316;44.118;27.258;2023-03-23T02:55:46;88.57;;;43.60;;
6564;SDS011;3316;44.118;27.258;2023-03-23T02:58:13;82.27;;;40.03;;
6564;SDS011;3316;44.118;27.258;2023-03-23T03:00:39;78.20;;;39.10;;
6564;SDS011;3316;44.118;27.258;2023-03-23T03:03:06;75.73;;;37.30;;
6564;SDS011;3316;44.118;27.258;2023-03-23T03:11:33;68.37;;;35.37;;
6564;SDS011;3316;44.118;27.258;2023-03-23T03:14:03;66.33;;;36.83;;
6564;SDS011;3316;44.118;27.258;2023-03-23T03:16:33;76.27;;;36.93;;
6564;SDS011;3316;44.118;27.258;2023-03-23T03:19:08;72.57;;;36.87;;
6564;SDS011;3316;44.118;27.258;2023-03-23T03:21:52;77.20;;;36.80;;
6564;SDS011;3316;44.118;27.258;2023-03-23T03:24:20;77.60;;;36.73;;
6564;SDS011;3316;44.118;27.258;2023-03-23T03:26:48;70.40;;;35.33;;
6564;SDS011;3316;44.118;27.258;2023-03-23T03:29:18;67.23;;;35.07;;
6564;SDS011;3316;44.118;27.258;2023-03-23T03:31:46;68.10;;;34.60;;
6564;SDS011;3316;44.118;27.258;2023-03-23T03:34:14;72.57;;;35.50;;
6564;SDS011;3316;44.118;27.258;2023-03-23T03:36:42;75.33;;;36.27;;
6564;SDS011;3316;44.118;27.258;2023-03-23T03:39:11;75.70;;;37.73;;
6564;SDS011;3316;44.118;27.258;2023-03-23T03:41:39;75.43;;;35.53;;
6564;SDS011;3316;44.118;27.258;2023-03-23T03:44:05;86.03;;;37.33;;
6564;SDS011;3316;44.118;27.258;2023-03-23T03:46:32;80.60;;;36.87;;
6564;SDS011;3316;44.118;27.258;2023-03-23T03:48:59;92.80;;;36.77;;
6564;SDS011;3316;44.118;27.258;2023-03-23T03:51:26;80.17;;;35.30;;
6564;SDS011;3316;44.118;27.258;2023-03-23T03:53:53;84.13;;;35.37;;
6564;SDS011;3316;44.118;27.258;2023-03-23T03:56:19;79.30;;;36.77;;
6564;SDS011;3316;44.118;27.258;2023-03-23T03:58:45;71.27;;;36.03;;
6564;SDS011;3316;44.118;27.258;2023-03-23T04:01:10;71.77;;;35.10;;
6564;SDS011;3316;44.118;27.258;2023-03-23T04:03:37;68.67;;;33.87;;
6564;SDS011;3316;44.118;27.258;2023-03-23T04:06:03;65.43;;;34.37;;
6564;SDS011;3316;44.118;27.258;2023-03-23T04:08:29;64.67;;;33.97;;
6564;SDS011;3316;44.118;27.258;2023-03-23T04:10:55;61.27;;;32.17;;
6564;SDS011;3316;44.118;27.258;2023-03-23T04:13:21;58.50;;;31.90;;
6564;SDS011;3316;44.118;27.258;2023-03-23T04:15:47;62.40;;;34.07;;
6564;SDS011;3316;44.118;27.258;2023-03-23T04:18:14;55.23;;;30.83;;
6564;SDS011;3316;44.118;27.258;2023-03-23T04:20:42;57.50;;;31.57;;
6564;SDS011;3316;44.118;27.258;2023-03-23T04:23:09;57.90;;;32.63;;
6564;SDS011;3316;44.118;27.258;2023-03-23T04:25:35;58.70;;;31.47;;
6564;SDS011;3316;44.118;27.258;2023-03-23T04:28:01;58.73;;;32.87;;
6564;SDS011;3316;44.118;27.258;2023-03-23T04:30:27;55.20;;;30.53;;
6564;SDS011;3316;44.118;27.258;2023-03-23T04:32:54;62.30;;;33.30;;
6564;SDS011;3316;44.118;27.258;2023-03-23T04:35:21;60.97;;;31.73;;
6564;SDS011;3316;44.118;27.258;2023-03-23T04:37:52;59.93;;;33.47;;
6564;SDS011;3316;44.118;27.258;2023-03-23T04:40:19;61.20;;;31.73;;
6564;SDS011;3316;44.118;27.258;2023-03-23T04:42:45;59.10;;;33.13;;
6564;SDS011;3316;44.118;27.258;2023-03-23T04:45:15;60.17;;;32.17;;
6564;SDS011;3316;44.118;27.258;2023-03-23T04:47:47;60.67;;;32.93;;
6564;SDS011;3316;44.118;27.258;2023-03-23T04:50:22;57.93;;;32.77;;
6564;SDS011;3316;44.118;27.258;2023-03-23T04:52:51;65.50;;;32.63;;
6564;SDS011;3316;44.118;27.258;2023-03-23T04:55:17;61.00;;;32.73;;
6564;SDS011;3316;44.118;27.258;2023-03-23T04:57:44;63.73;;;33.37;;
6564;SDS011;3316;44.118;27.258;2023-03-23T05:00:10;61.27;;;32.80;;
6564;SDS011;3316;44.118;27.258;2023-03-23T05:02:43;62.03;;;31.70;;
6564;SDS011;3316;44.118;27.258;2023-03-23T05:05:12;57.47;;;30.77;;
6564;SDS011;3316;44.118;27.258;2023-03-23T05:07:39;54.97;;;31.93;;
6564;SDS011;3316;44.118;27.258;2023-03-23T05:10:05;59.43;;;32.57;;
6564;SDS011;3316;44.118;27.258;2023-03-23T05:12:32;64.27;;;34.03;;
6564;SDS011;3316;44.118;27.258;2023-03-23T05:14:58;53.40;;;29.90;;
6564;SDS011;3316;44.118;27.258;2023-03-23T05:17:24;55.10;;;30.30;;
6564;SDS011;3316;44.118;27.258;2023-03-23T05:19:51;57.03;;;29.93;;
6564;SDS011;3316;44.118;27.258;2023-03-23T05:22:16;57.80;;;31.80;;
6564;SDS011;3316;44.118;27.258;2023-03-23T05:24:42;71.90;;;35.73;;
6564;SDS011;3316;44.118;27.258;2023-03-23T05:27:11;67.50;;;34.30;;
6564;SDS011;3316;44.118;27.258;2023-03-23T05:29:37;117.57;;;54.67;;
6564;SDS011;3316;44.118;27.258;2023-03-23T05:32:03;64.97;;;32.83;;
6564;SDS011;3316;44.118;27.258;2023-03-23T05:34:30;59.33;;;31.10;;
6564;SDS011;3316;44.118;27.258;2023-03-23T05:36:58;213.60;;;81.23;;
6564;SDS011;3316;44.118;27.258;2023-03-23T05:39:24;92.73;;;43.17;;
6564;SDS011;3316;44.118;27.258;2023-03-23T05:41:50;152.23;;;62.57;;
6564;SDS011;3316;44.118;27.258;2023-03-23T05:44:16;138.60;;;59.20;;
6564;SDS011;3316;44.118;27.258;2023-03-23T05:46:42;161.60;;;63.23;;
6564;SDS011;3316;44.118;27.258;2023-03-23T05:49:08;66.00;;;34.07;;
6564;SDS011;3316;44.118;27.258;2023-03-23T05:51:34;73.30;;;34.87;;
6564;SDS011;3316;44.118;27.258;2023-03-23T05:54:00;61.70;;;32.80;;
6564;SDS011;3316;44.118;27.258;2023-03-23T05:56:25;66.60;;;36.57;;
6564;SDS011;3316;44.118;27.258;2023-03-23T05:58:51;115.30;;;49.00;;
6564;SDS011;3316;44.118;27.258;2023-03-23T06:01:17;74.90;;;36.97;;
6564;SDS011;3316;44.118;27.258;2023-03-23T06:03:43;82.10;;;39.97;;
6564;SDS011;3316;44.118;27.258;2023-03-23T06:06:10;209.17;;;85.97;;
6564;SDS011;3316;44.118;27.258;2023-03-23T06:08:36;66.43;;;36.80;;
6564;SDS011;3316;44.118;27.258;2023-03-23T06:11:02;69.63;;;37.73;;
6564;SDS011;3316;44.118;27.258;2023-03-23T06:13:29;56.50;;;33.47;;
6564;SDS011;3316;44.118;27.258;2023-03-23T06:15:55;120.37;;;57.30;;
6564;SDS011;3316;44.118;27.258;2023-03-23T06:18:24;167.50;;;64.30;;
6564;SDS011;3316;44.118;27.258;2023-03-23T06:20:50;75.80;;;40.70;;
6564;SDS011;3316;44.118;27.258;2023-03-23T06:23:16;92.77;;;46.23;;
6564;SDS011;3316;44.118;27.258;2023-03-23T06:25:42;93.87;;;44.33;;
6564;SDS011;3316;44.118;27.258;2023-03-23T06:28:08;166.83;;;61.77;;
6564;SDS011;3316;44.118;27.258;2023-03-23T06:30:34;70.47;;;36.70;;
6564;SDS011;3316;44.118;27.258;2023-03-23T06:33:01;139.47;;;64.60;;
6564;SDS011;3316;44.118;27.258;2023-03-23T06:35:27;85.30;;;43.07;;
6564;SDS011;3316;44.118;27.258;2023-03-23T06:37:52;71.97;;;36.47;;
6564;SDS011;3316;44.118;27.258;2023-03-23T06:40:19;91.10;;;45.37;;
6564;SDS011;3316;44.118;27.258;2023-03-23T06:42:44;67.10;;;36.60;;
6564;SDS011;3316;44.118;27.258;2023-03-23T06:45:10;75.90;;;34.73;;
6564;SDS011;3316;44.118;27.258;2023-03-23T06:47:35;67.80;;;34.23;;
6564;SDS011;3316;44.118;27.258;2023-03-23T06:50:01;53.60;;;30.10;;
6564;SDS011;3316;44.118;27.258;2023-03-23T06:52:27;54.60;;;28.27;;
6564;SDS011;3316;44.118;27.258;2023-03-23T06:54:53;66.20;;;31.90;;
6564;SDS011;3316;44.118;27.258;2023-03-23T06:57:19;76.20;;;39.93;;
6564;SDS011;3316;44.118;27.258;2023-03-23T06:59:45;91.23;;;47.23;;
6564;SDS011;3316;44.118;27.258;2023-03-23T07:02:11;61.97;;;33.80;;
6564;SDS011;3316;44.118;27.258;2023-03-23T07:04:41;45.80;;;28.00;;
6564;SDS011;3316;44.118;27.258;2023-03-23T07:07:10;42.70;;;26.63;;
6564;SDS011;3316;44.118;27.258;2023-03-23T07:09:39;42.40;;;25.03;;
6564;SDS011;3316;44.118;27.258;2023-03-23T07:12:05;54.20;;;31.27;;
6564;SDS011;3316;44.118;27.258;2023-03-23T07:14:30;43.40;;;25.80;;
6564;SDS011;3316;44.118;27.258;2023-03-23T07:16:55;41.67;;;25.90;;
6564;SDS011;3316;44.118;27.258;2023-03-23T07:19:21;40.30;;;25.10;;
6564;SDS011;3316;44.118;27.258;2023-03-23T07:21:47;42.83;;;24.53;;
6564;SDS011;3316;44.118;27.258;2023-03-23T07:24:13;40.17;;;23.37;;
6564;SDS011;3316;44.118;27.258;2023-03-23T07:26:39;36.53;;;22.97;;
6564;SDS011;3316;44.118;27.258;2023-03-23T07:29:06;37.43;;;22.10;;
6564;SDS011;3316;44.118;27.258;2023-03-23T07:31:32;43.10;;;24.87;;
6564;SDS011;3316;44.118;27.258;2023-03-23T07:33:58;34.37;;;22.70;;
6564;SDS011;3316;44.118;27.258;2023-03-23T07:36:23;37.83;;;25.03;;
6564;SDS011;3316;44.118;27.258;2023-03-23T07:38:51;39.47;;;24.03;;
6564;SDS011;3316;44.118;27.258;2023-03-23T07:41:16;34.47;;;21.60;;
6564;SDS011;3316;44.118;27.258;2023-03-23T07:43:42;45.90;;;25.33;;
6564;SDS011;3316;44.118;27.258;2023-03-23T07:46:08;35.23;;;23.03;;
6564;SDS011;3316;44.118;27.258;2023-03-23T07:48:33;45.00;;;25.67;;
6564;SDS011;3316;44.118;27.258;2023-03-23T07:50:59;38.03;;;23.87;;
6564;SDS011;3316;44.118;27.258;2023-03-23T07:53:25;45.43;;;25.47;;
6564;SDS011;3316;44.118;27.258;2023-03-23T07:55:50;40.60;;;27.10;;
6564;SDS011;3316;44.118;27.258;2023-03-23T07:58:16;37.23;;;23.33;;
6564;SDS011;3316;44.118;27.258;2023-03-23T08:00:44;49.23;;;28.73;;
6564;SDS011;3316;44.118;27.258;2023-03-23T08:03:11;38.83;;;24.83;;
6564;SDS011;3316;44.118;27.258;2023-03-23T08:05:37;34.23;;;21.97;;
6564;SDS011;3316;44.118;27.258;2023-03-23T08:08:03;50.33;;;27.87;;
6564;SDS011;3316;44.118;27.258;2023-03-23T08:10:29;40.83;;;23.90;;
6564;SDS011;3316;44.118;27.258;2023-03-23T08:12:55;43.77;;;26.23;;
6564;SDS011;3316;44.118;27.258;2023-03-23T08:15:21;42.33;;;25.17;;
6564;SDS011;3316;44.118;27.258;2023-03-23T08:17:48;36.57;;;22.03;;
6564;SDS011;3316;44.118;27.258;2023-03-23T08:20:16;34.17;;;21.03;;
6564;SDS011;3316;44.118;27.258;2023-03-23T08:22:44;32.37;;;21.30;;
6564;SDS011;3316;44.118;27.258;2023-03-23T08:25:13;40.20;;;23.40;;
6564;SDS011;3316;44.118;27.258;2023-03-23T08:27:42;26.53;;;18.13;;
6564;SDS011;3316;44.118;27.258;2023-03-23T08:30:11;29.03;;;19.03;;
6564;SDS011;3316;44.118;27.258;2023-03-23T08:32:38;25.40;;;17.40;;
6564;SDS011;3316;44.118;27.258;2023-03-23T08:35:04;39.50;;;21.10;;
6564;SDS011;3316;44.118;27.258;2023-03-23T08:37:30;29.20;;;19.80;;
6564;SDS011;3316;44.118;27.258;2023-03-23T08:39:56;29.80;;;19.27;;
6564;SDS011;3316;44.118;27.258;2023-03-23T08:42:24;30.53;;;19.00;;
6564;SDS011;3316;44.118;27.258;2023-03-23T08:44:51;28.87;;;21.37;;
6564;SDS011;3316;44.118;27.258;2023-03-23T08:47:17;29.17;;;19.27;;
6564;SDS011;3316;44.118;27.258;2023-03-23T08:49:42;32.50;;;17.87;;
6564;SDS011;3316;44.118;27.258;2023-03-23T08:52:10;27.20;;;17.40;;
6564;SDS011;3316;44.118;27.258;2023-03-23T08:54:36;27.17;;;16.83;;
6564;SDS011;3316;44.118;27.258;2023-03-23T08:57:02;22.03;;;14.47;;
6564;SDS011;3316;44.118;27.258;2023-03-23T08:59:27;23.20;;;15.77;;
6564;SDS011;3316;44.118;27.258;2023-03-23T09:01:53;22.10;;;14.63;;
6564;SDS011;3316;44.118;27.258;2023-03-23T09:04:20;24.27;;;14.63;;
6564;SDS011;3316;44.118;27.258;2023-03-23T09:06:46;26.97;;;17.10;;
6564;SDS011;3316;44.118;27.258;2023-03-23T09:09:11;20.57;;;14.20;;
6564;SDS011;3316;44.118;27.258;2023-03-23T09:11:38;18.47;;;13.90;;
6564;SDS011;3316;44.118;27.258;2023-03-23T09:14:05;26.40;;;16.53;;
6564;SDS011;3316;44.118;27.258;2023-03-23T09:16:32;23.80;;;15.33;;
6564;SDS011;3316;44.118;27.258;2023-03-23T09:18:58;22.07;;;14.17;;
6564;SDS011;3316;44.118;27.258;2023-03-23T09:21:25;22.27;;;15.00;;
6564;SDS011;3316;44.118;27.258;2023-03-23T09:23:51;22.20;;;14.43;;
6564;SDS011;3316;44.118;27.258;2023-03-23T09:26:21;20.10;;;13.43;;
6564;SDS011;3316;44.118;27.258;2023-03-23T09:28:47;28.50;;;17.73;;
6564;SDS011;3316;44.118;27.258;2023-03-23T09:31:12;29.23;;;17.03;;
6564;SDS011;3316;44.118;27.258;2023-03-23T09:33:38;20.97;;;14.60;;
6564;SDS011;3316;44.118;27.258;2023-03-23T09:36:04;31.10;;;17.20;;
6564;SDS011;3316;44.118;27.258;2023-03-23T09:38:31;17.90;;;11.53;;
6564;SDS011;3316;44.118;27.258;2023-03-23T09:46:48;45.40;;;24.27;;
6564;SDS011;3316;44.118;27.258;2023-03-23T09:54:26;38.30;;;22.13;;
6564;SDS011;3316;44.118;27.258;2023-03-23T09:56:52;45.67;;;23.73;;
6564;SDS011;3316;44.118;27.258;2023-03-23T10:01:54;87.00;;;35.40;;
6564;SDS011;3316;44.118;27.258;2023-03-23T10:04:30;20.23;;;13.23;;
6564;SDS011;3316;44.118;27.258;2023-03-23T10:07:09;21.13;;;11.57;;
6564;SDS011;3316;44.118;27.258;2023-03-23T10:09:36;25.77;;;13.70;;
6564;SDS011;3316;44.118;27.258;2023-03-23T10:12:23;79.57;;;31.57;;
6564;SDS011;3316;44.118;27.258;2023-03-23T10:20:57;19.80;;;12.47;;
6564;SDS011;3316;44.118;27.258;2023-03-23T10:28:52;29.87;;;16.67;;
6564;SDS011;3316;44.118;27.258;2023-03-23T10:31:23;73.77;;;31.10;;
6564;SDS011;3316;44.118;27.258;2023-03-23T10:33:55;59.93;;;26.93;;
6564;SDS011;3316;44.118;27.258;2023-03-23T10:36:31;20.77;;;12.87;;
6564;SDS011;3316;44.118;27.258;2023-03-23T10:41:40;24.10;;;13.80;;
6564;SDS011;3316;44.118;27.258;2023-03-23T10:44:09;37.60;;;20.87;;
6564;SDS011;3316;44.118;27.258;2023-03-23T10:49:13;57.87;;;24.43;;
6564;SDS011;3316;44.118;27.258;2023-03-23T10:51:47;23.73;;;15.20;;
6564;SDS011;3316;44.118;27.258;2023-03-23T10:54:31;25.43;;;16.40;;
6564;SDS011;3316;44.118;27.258;2023-03-23T10:57:00;32.87;;;18.03;;
6564;SDS011;3316;44.118;27.258;2023-03-23T10:59:48;68.93;;;32.53;;
6564;SDS011;3316;44.118;27.258;2023-03-23T11:02:15;47.67;;;22.67;;
6564;SDS011;3316;44.118;27.258;2023-03-23T11:04:47;29.77;;;15.47;;
6564;SDS011;3316;44.118;27.258;2023-03-23T11:07:28;26.20;;;15.13;;
6564;SDS011;3316;44.118;27.258;2023-03-23T11:10:03;44.63;;;22.17;;
6564;SDS011;3316;44.118;27.258;2023-03-23T11:12:33;21.07;;;14.20;;
6564;SDS011;3316;44.118;27.258;2023-03-23T11:17:56;22.83;;;14.47;;
6564;SDS011;3316;44.118;27.258;2023-03-23T11:20:25;17.23;;;12.80;;
6564;SDS011;3316;44.118;27.258;2023-03-23T11:22:51;15.33;;;12.00;;
6564;SDS011;3316;44.118;27.258;2023-03-23T11:25:18;19.80;;;13.10;;
6564;SDS011;3316;44.118;27.258;2023-03-23T11:27:43;17.90;;;12.33;;
6564;SDS011;3316;44.118;27.258;2023-03-23T11:32:58;16.70;;;11.13;;
6564;SDS011;3316;44.118;27.258;2023-03-23T11:35:27;15.47;;;9.77;;
6564;SDS011;3316;44.118;27.258;2023-03-23T11:37:55;20.67;;;13.63;;
6564;SDS011;3316;44.118;27.258;2023-03-23T11:40:26;16.93;;;11.40;;
6564;SDS011;3316;44.118;27.258;2023-03-23T11:45:24;20.20;;;11.67;;
6564;SDS011;3316;44.118;27.258;2023-03-23T11:56:17;17.97;;;12.23;;
6564;SDS011;3316;44.118;27.258;2023-03-23T11:58:50;20.23;;;12.77;;
6564;SDS011;3316;44.118;27.258;2023-03-23T12:06:34;16.43;;;12.83;;
6564;SDS011;3316;44.118;27.258;2023-03-23T12:09:21;18.90;;;13.63;;
6564;SDS011;3316;44.118;27.258;2023-03-23T12:11:57;22.20;;;14.30;;
6564;SDS011;3316;44.118;27.258;2023-03-23T12:17:07;16.50;;;11.90;;
6564;SDS011;3316;44.118;27.258;2023-03-23T12:19:55;25.20;;;14.03;;
6564;SDS011;3316;44.118;27.258;2023-03-23T12:22:28;32.57;;;15.90;;
6564;SDS011;3316;44.118;27.258;2023-03-23T12:39:10;17.57;;;13.13;;
6564;SDS011;3316;44.118;27.258;2023-03-23T12:41:16;19.90;;;13.77;;
6564;SDS011;3316;44.118;27.258;2023-03-23T12:44:11;23.43;;;14.90;;
6564;SDS011;3316;44.118;27.258;2023-03-23T12:51:58;21.73;;;14.00;;
6564;SDS011;3316;44.118;27.258;2023-03-23T12:57:36;21.30;;;14.43;;
6564;SDS011;3316;44.118;27.258;2023-03-23T13:03:29;14.73;;;11.43;;
6564;SDS011;3316;44.118;27.258;2023-03-23T13:16:58;18.37;;;12.73;;
6564;SDS011;3316;44.118;27.258;2023-03-23T13:22:50;25.03;;;17.30;;
6564;SDS011;3316;44.118;27.258;2023-03-23T13:28:14;21.93;;;15.23;;
6564;SDS011;3316;44.118;27.258;2023-03-23T13:30:52;31.17;;;17.47;;
6564;SDS011;3316;44.118;27.258;2023-03-23T13:33:18;29.17;;;14.70;;
6564;SDS011;3316;44.118;27.258;2023-03-23T13:35:46;22.67;;;15.07;;
6564;SDS011;3316;44.118;27.258;2023-03-23T13:38:25;23.20;;;15.07;;
6564;SDS011;3316;44.118;27.258;2023-03-23T13:40:53;20.87;;;14.07;;
6564;SDS011;3316;44.118;27.258;2023-03-23T13:43:29;20.90;;;13.60;;
6564;SDS011;3316;44.118;27.258;2023-03-23T13:46:23;39.17;;;18.57;;
6564;SDS011;3316;44.118;27.258;2023-03-23T13:49:13;26.40;;;19.20;;
6564;SDS011;3316;44.118;27.258;2023-03-23T13:56:41;46.63;;;25.47;;
6564;SDS011;3316;44.118;27.258;2023-03-23T13:59:16;21.40;;;15.77;;
6564;SDS011;3316;44.118;27.258;2023-03-23T14:01:57;27.90;;;18.80;;
6564;SDS011;3316;44.118;27.258;2023-03-23T14:04:53;35.10;;;19.83;;
6564;SDS011;3316;44.118;27.258;2023-03-23T14:07:19;25.07;;;16.73;;
6564;SDS011;3316;44.118;27.258;2023-03-23T14:09:45;22.70;;;15.87;;
6564;SDS011;3316;44.118;27.258;2023-03-23T14:12:23;26.20;;;16.83;;
6564;SDS011;3316;44.118;27.258;2023-03-23T14:14:56;39.63;;;22.13;;
6564;SDS011;3316;44.118;27.258;2023-03-23T14:17:29;21.53;;;15.73;;
6564;SDS011;3316;44.118;27.258;2023-03-23T14:20:05;42.80;;;23.73;;
6564;SDS011;3316;44.118;27.258;2023-03-23T14:22:32;23.37;;;16.63;;
6564;SDS011;3316;44.118;27.258;2023-03-23T14:25:01;33.53;;;19.83;;
6564;SDS011;3316;44.118;27.258;2023-03-23T14:27:35;36.23;;;20.13;;
6564;SDS011;3316;44.118;27.258;2023-03-23T14:30:08;24.90;;;16.83;;
6564;SDS011;3316;44.118;27.258;2023-03-23T14:32:38;29.40;;;18.57;;
6564;SDS011;3316;44.118;27.258;2023-03-23T14:35:05;64.70;;;34.37;;
6564;SDS011;3316;44.118;27.258;2023-03-23T14:37:34;28.27;;;17.63;;
6564;SDS011;3316;44.118;27.258;2023-03-23T14:40:00;44.93;;;23.67;;
6564;SDS011;3316;44.118;27.258;2023-03-23T14:42:30;27.07;;;16.97;;
6564;SDS011;3316;44.118;27.258;2023-03-23T14:45:03;26.97;;;18.60;;
6564;SDS011;3316;44.118;27.258;2023-03-23T14:47:34;25.33;;;17.47;;
6564;SDS011;3316;44.118;27.258;2023-03-23T14:50:04;23.67;;;17.77;;
6564;SDS011;3316;44.118;27.258;2023-03-23T14:52:35;26.47;;;16.67;;
6564;SDS011;3316;44.118;27.258;2023-03-23T14:55:15;26.77;;;17.27;;
6564;SDS011;3316;44.118;27.258;2023-03-23T14:57:44;21.93;;;16.90;;
6564;SDS011;3316;44.118;27.258;2023-03-23T15:00:13;25.97;;;16.67;;
6564;SDS011;3316;44.118;27.258;2023-03-23T15:02:47;24.60;;;17.57;;
6564;SDS011;3316;44.118;27.258;2023-03-23T15:05:17;24.40;;;17.20;;
6564;SDS011;3316;44.118;27.258;2023-03-23T15:07:47;26.43;;;17.70;;
6564;SDS011;3316;44.118;27.258;2023-03-23T15:10:18;24.97;;;17.10;;
6564;SDS011;3316;44.118;27.258;2023-03-23T15:12:46;23.03;;;16.83;;
6564;SDS011;3316;44.118;27.258;2023-03-23T15:15:26;28.73;;;18.67;;
6564;SDS011;3316;44.118;27.258;2023-03-23T15:17:52;46.40;;;23.27;;
6564;SDS011;3316;44.118;27.258;2023-03-23T15:23:04;32.20;;;20.00;;
6564;SDS011;3316;44.118;27.258;2023-03-23T15:25:32;55.47;;;28.97;;
6564;SDS011;3316;44.118;27.258;2023-03-23T15:30:47;29.63;;;19.00;;
6564;SDS011;3316;44.118;27.258;2023-03-23T15:33:14;76.87;;;36.47;;
6564;SDS011;3316;44.118;27.258;2023-03-23T15:35:50;34.53;;;19.70;;
6564;SDS011;3316;44.118;27.258;2023-03-23T15:40:52;29.30;;;20.67;;
6564;SDS011;3316;44.118;27.258;2023-03-23T15:43:23;31.33;;;17.50;;
6564;SDS011;3316;44.118;27.258;2023-03-23T15:45:53;23.43;;;17.10;;
6564;SDS011;3316;44.118;27.258;2023-03-23T15:48:25;31.17;;;18.83;;
6564;SDS011;3316;44.118;27.258;2023-03-23T15:50:51;35.63;;;23.40;;
6564;SDS011;3316;44.118;27.258;2023-03-23T15:53:28;33.13;;;19.77;;
6564;SDS011;3316;44.118;27.258;2023-03-23T15:55:53;33.80;;;22.40;;
6564;SDS011;3316;44.118;27.258;2023-03-23T15:58:19;42.60;;;27.47;;
6564;SDS011;3316;44.118;27.258;2023-03-23T16:00:45;35.73;;;23.13;;
6564;SDS011;3316;44.118;27.258;2023-03-23T16:03:13;43.07;;;27.10;;
6564;SDS011;3316;44.118;27.258;2023-03-23T16:05:43;49.60;;;31.67;;
6564;SDS011;3316;44.118;27.258;2023-03-23T16:08:10;43.63;;;25.10;;
6564;SDS011;3316;44.118;27.258;2023-03-23T16:10:36;27.83;;;19.03;;
6564;SDS011;3316;44.118;27.258;2023-03-23T16:13:01;36.63;;;21.20;;
6564;SDS011;3316;44.118;27.258;2023-03-23T16:15:29;38.53;;;22.47;;
6564;SDS011;3316;44.118;27.258;2023-03-23T16:17:54;49.20;;;28.77;;
6564;SDS011;3316;44.118;27.258;2023-03-23T16:20:21;42.57;;;27.43;;
6564;SDS011;3316;44.118;27.258;2023-03-23T16:22:48;35.17;;;22.57;;
6564;SDS011;3316;44.118;27.258;2023-03-23T16:25:15;47.50;;;26.23;;
6564;SDS011;3316;44.118;27.258;2023-03-23T16:27:42;44.13;;;25.27;;
6564;SDS011;3316;44.118;27.258;2023-03-23T16:30:17;45.70;;;28.43;;
6564;SDS011;3316;44.118;27.258;2023-03-23T16:32:44;44.83;;;29.20;;
6564;SDS011;3316;44.118;27.258;2023-03-23T16:35:10;45.00;;;28.17;;
6564;SDS011;3316;44.118;27.258;2023-03-23T16:37:36;45.93;;;28.07;;
6564;SDS011;3316;44.118;27.258;2023-03-23T16:40:02;45.37;;;28.27;;
6564;SDS011;3316;44.118;27.258;2023-03-23T16:42:28;55.17;;;32.97;;
6564;SDS011;3316;44.118;27.258;2023-03-23T16:44:53;44.73;;;28.93;;
6564;SDS011;3316;44.118;27.258;2023-03-23T16:47:19;50.03;;;29.10;;
6564;SDS011;3316;44.118;27.258;2023-03-23T16:49:49;47.13;;;29.10;;
6564;SDS011;3316;44.118;27.258;2023-03-23T16:52:15;56.83;;;32.80;;
6564;SDS011;3316;44.118;27.258;2023-03-23T16:54:41;65.93;;;33.90;;
6564;SDS011;3316;44.118;27.258;2023-03-23T16:57:06;54.93;;;32.07;;